Time;durP1;ratioP1;P1;durP2;ratioP2;P2;SDS_P1;SDS_P2;PMS_P1;PMS_P2;Temp;Humidity;BMP_temperature;BMP_pressure;BME280_temperature;BME280_humidity;BME280_pressure;Samples;Min_cycle;Max_cycle;Signal;HPM_P1;HPM_P2
2024/03/30 00:00:51;;;;;;;7.30;3.50;;;15.60;92.00;;;;;;5048164;28;20115;-76
2024/03/30 00:03:17;;;;;;;5.47;3.33;;;15.60;92.00;;;;;;5055630;28;20111;-77
2024/03/30 00:05:44;;;;;;;5.60;3.53;;;15.60;91.90;;;;;;5068989;28;20028;-77
2024/03/30 00:08:09;;;;;;;6.90;2.97;;;15.70;91.90;;;;;;5062609;28;20139;-76
2024/03/30 00:10:36;;;;;;;5.15;3.50;;;15.70;91.90;;;;;;5068789;28;20127;-77
2024/03/30 00:13:03;;;;;;;7.75;3.30;;;15.60;91.80;;;;;;5060667;28;20044;-76
2024/03/30 00:15:29;;;;;;;4.45;3.13;;;15.70;91.80;;;;;;5050973;28;20339;-77
2024/03/30 00:17:55;;;;;;;4.88;3.20;;;15.70;91.70;;;;;;5046205;28;20476;-76
2024/03/30 00:20:26;;;;;;;5.78;3.10;;;15.70;91.70;;;;;;5049458;28;20488;-77
2024/03/30 00:22:53;;;;;;;6.10;3.10;;;15.80;91.60;;;;;;5050082;28;20115;-77
2024/03/30 00:25:20;;;;;;;4.75;3.03;;;15.70;91.50;;;;;;5050273;28;20024;-77
2024/03/30 00:27:45;;;;;;;6.05;2.92;;;15.80;91.50;;;;;;5059375;28;21328;-77
2024/03/30 00:30:11;;;;;;;5.32;3.20;;;15.80;91.50;;;;;;5063087;28;20118;-76
2024/03/30 00:32:37;;;;;;;6.03;2.85;;;15.80;91.50;;;;;;5053549;28;20111;-77
2024/03/30 00:35:03;;;;;;;5.72;2.60;;;15.70;91.50;;;;;;5055919;28;20036;-76
2024/03/30 00:37:29;;;;;;;4.93;2.92;;;15.70;91.60;;;;;;5051251;28;20033;-77
2024/03/30 00:39:55;;;;;;;5.43;2.88;;;15.70;91.90;;;;;;5046342;28;20044;-77
2024/03/30 00:42:20;;;;;;;5.13;3.10;;;15.60;91.90;;;;;;5051774;28;20043;-77
2024/03/30 00:44:46;;;;;;;3.97;2.53;;;15.60;92.00;;;;;;5046908;28;20029;-76
2024/03/30 00:47:15;;;;;;;4.07;2.67;;;15.60;92.10;;;;;;5060061;28;20029;-76
2024/03/30 00:49:40;;;;;;;6.38;3.00;;;15.60;92.00;;;;;;5051735;28;20507;-76
2024/03/30 00:52:06;;;;;;;5.70;3.40;;;15.60;92.00;;;;;;5048010;28;20033;-76
2024/03/30 00:54:32;;;;;;;4.72;2.75;;;15.60;91.90;;;;;;5052336;28;20041;-77
2024/03/30 00:57:00;;;;;;;6.15;3.25;;;15.60;91.90;;;;;;5054039;28;20041;-76
2024/03/30 00:59:26;;;;;;;4.18;2.83;;;15.60;91.80;;;;;;5050743;28;20057;-77
2024/03/30 01:01:51;;;;;;;5.38;3.03;;;15.60;91.70;;;;;;5056279;28;20083;-77
2024/03/30 01:04:17;;;;;;;4.72;3.00;;;15.60;91.60;;;;;;5061878;28;20454;-77
2024/03/30 01:06:43;;;;;;;5.43;2.92;;;15.60;91.60;;;;;;5055987;28;21227;-77
2024/03/30 01:09:09;;;;;;;3.78;2.67;;;15.60;91.60;;;;;;5065217;28;20032;-77
2024/03/30 01:11:36;;;;;;;5.28;2.95;;;15.60;91.60;;;;;;5055069;28;20033;-77
2024/03/30 01:14:03;;;;;;;4.22;2.63;;;15.60;91.50;;;;;;5055700;28;20092;-77
2024/03/30 01:16:29;;;;;;;6.35;3.25;;;15.60;91.50;;;;;;5061114;28;20111;-77
2024/03/30 01:18:55;;;;;;;5.85;2.90;;;15.60;91.50;;;;;;5062318;28;20043;-77
2024/03/30 01:21:21;;;;;;;6.50;3.22;;;15.60;91.50;;;;;;5067097;28;20035;-77
2024/03/30 01:23:47;;;;;;;5.68;2.83;;;15.60;91.50;;;;;;5068861;28;20036;-77
2024/03/30 01:26:15;;;;;;;14.65;3.45;;;15.60;91.40;;;;;;5053855;28;20029;-77
2024/03/30 01:28:42;;;;;;;4.72;2.85;;;15.60;91.40;;;;;;5057950;28;20124;-77
2024/03/30 01:31:10;;;;;;;3.92;2.72;;;15.60;91.40;;;;;;5068867;28;20922;-77
2024/03/30 01:33:36;;;;;;;4.70;2.95;;;15.60;91.40;;;;;;5061957;28;20032;-78
2024/03/30 01:36:02;;;;;;;3.20;2.33;;;15.60;91.40;;;;;;5066470;28;20482;-77
2024/03/30 01:38:30;;;;;;;4.30;2.67;;;15.60;91.40;;;;;;5063329;28;20094;-77
2024/03/30 01:40:55;;;;;;;3.80;2.55;;;15.60;91.40;;;;;;5066980;28;20442;-77
2024/03/30 01:43:21;;;;;;;5.22;2.55;;;15.60;91.60;;;;;;5062624;28;20061;-78
2024/03/30 01:45:47;;;;;;;4.28;2.70;;;15.50;91.70;;;;;;5061225;28;20361;-77
2024/03/30 01:48:15;;;;;;;6.10;2.85;;;15.40;91.80;;;;;;5062251;28;20041;-77
2024/03/30 01:50:43;;;;;;;4.45;2.22;;;15.50;91.90;;;;;;5063214;28;20554;-77
2024/03/30 01:53:12;;;;;;;4.05;2.67;;;15.50;92.10;;;;;;5060906;28;20072;-77
2024/03/30 01:55:40;;;;;;;6.53;2.30;;;15.40;92.40;;;;;;5061879;28;20067;-77
2024/03/30 01:58:07;;;;;;;4.50;2.60;;;15.30;92.40;;;;;;5065641;28;20492;-77
2024/03/30 02:00:33;;;;;;;6.40;2.72;;;15.30;92.50;;;;;;5067705;28;20036;-77
2024/03/30 02:03:04;;;;;;;3.17;2.20;;;15.30;92.50;;;;;;5059703;28;20075;-77
2024/03/30 02:05:31;;;;;;;2.72;2.10;;;15.30;92.50;;;;;;5059073;28;20135;-77
2024/03/30 02:08:04;;;;;;;5.93;2.38;;;15.30;92.50;;;;;;5053336;28;20104;-77
2024/03/30 02:10:30;;;;;;;2.88;2.13;;;15.30;92.50;;;;;;5056728;28;20028;-77
2024/03/30 02:12:55;;;;;;;3.53;2.30;;;15.30;92.50;;;;;;5068790;28;20133;-77
2024/03/30 02:15:22;;;;;;;7.22;2.17;;;15.40;92.60;;;;;;5062500;28;20464;-77
2024/03/30 02:17:48;;;;;;;3.85;2.75;;;15.30;92.60;;;;;;5049210;28;20052;-77
2024/03/30 02:20:14;;;;;;;3.38;2.13;;;15.30;92.60;;;;;;5058546;28;20079;-77
2024/03/30 02:22:47;;;;;;;3.15;1.92;;;15.30;92.70;;;;;;5057438;28;20438;-77
2024/03/30 02:25:13;;;;;;;3.90;2.20;;;15.30;92.60;;;;;;5061401;28;20047;-77
2024/03/30 02:27:40;;;;;;;3.15;2.10;;;15.30;92.60;;;;;;5055914;28;20021;-77
2024/03/30 02:30:09;;;;;;;3.88;2.20;;;15.30;92.50;;;;;;5065211;28;20085;-77
2024/03/30 02:32:35;;;;;;;4.63;2.30;;;15.40;92.40;;;;;;5060851;28;20031;-77
2024/03/30 02:35:01;;;;;;;5.43;2.20;;;15.40;92.30;;;;;;5049673;28;20400;-77
2024/03/30 02:37:27;;;;;;;3.53;2.25;;;15.50;92.30;;;;;;5060685;28;20498;-77
2024/03/30 02:39:52;;;;;;;3.40;2.13;;;15.50;92.30;;;;;;5059669;28;20040;-77
2024/03/30 02:42:18;;;;;;;3.03;2.30;;;15.40;92.30;;;;;;5052805;28;20021;-77
2024/03/30 02:44:44;;;;;;;3.65;2.10;;;15.40;92.40;;;;;;5063319;28;20029;-77
2024/03/30 02:47:09;;;;;;;4.72;2.15;;;15.40;92.40;;;;;;5054963;28;20051;-77
2024/03/30 02:49:35;;;;;;;5.47;2.22;;;15.30;92.40;;;;;;5060143;28;20047;-77
2024/03/30 02:52:00;;;;;;;4.68;2.35;;;15.40;92.40;;;;;;5049061;28;21031;-77
2024/03/30 02:54:26;;;;;;;3.00;2.20;;;15.40;92.30;;;;;;5069434;28;20105;-77
2024/03/30 02:56:52;;;;;;;3.38;2.42;;;15.30;92.30;;;;;;5059805;28;20837;-77
2024/03/30 02:59:17;;;;;;;5.35;2.42;;;15.30;92.40;;;;;;5064799;28;20049;-77
2024/03/30 03:01:45;;;;;;;4.93;2.40;;;15.30;92.40;;;;;;5066192;28;20064;-77
2024/03/30 03:04:11;;;;;;;4.78;2.47;;;15.30;92.40;;;;;;5058520;28;20447;-77
2024/03/30 03:06:37;;;;;;;3.47;2.45;;;15.30;92.40;;;;;;5061278;28;20503;-77
2024/03/30 03:09:05;;;;;;;5.68;2.90;;;15.20;92.40;;;;;;5063494;28;20032;-77
2024/03/30 03:11:31;;;;;;;4.10;2.80;;;15.20;92.50;;;;;;5050167;28;20055;-77
2024/03/30 03:13:56;;;;;;;5.88;3.03;;;15.20;92.60;;;;;;5059093;28;20488;-77
2024/03/30 03:16:22;;;;;;;5.22;2.70;;;15.10;92.60;;;;;;5061882;28;20051;-77
2024/03/30 03:18:47;;;;;;;7.07;2.78;;;15.10;92.70;;;;;;5060861;28;20392;-77
2024/03/30 03:21:13;;;;;;;4.68;2.55;;;15.10;92.80;;;;;;5057569;28;20482;-77
2024/03/30 03:23:40;;;;;;;4.43;2.60;;;15.00;92.80;;;;;;5058439;28;20531;-77
2024/03/30 03:26:05;;;;;;;3.95;2.50;;;15.00;93.00;;;;;;5059705;28;20025;-77
2024/03/30 03:28:31;;;;;;;5.32;2.42;;;15.00;93.00;;;;;;5053515;28;20786;-77
2024/03/30 03:30:57;;;;;;;3.53;2.40;;;15.00;93.00;;;;;;5055123;28;20024;-77
2024/03/30 03:33:22;;;;;;;4.68;2.22;;;14.90;93.00;;;;;;5069123;28;20048;-77
2024/03/30 03:35:48;;;;;;;4.70;2.75;;;14.90;93.00;;;;;;5053594;28;20086;-77
2024/03/30 03:38:14;;;;;;;3.20;2.50;;;14.90;93.00;;;;;;5051775;28;20037;-77
2024/03/30 03:40:39;;;;;;;9.68;2.55;;;14.90;93.00;;;;;;5050525;28;20043;-77
2024/03/30 03:43:05;;;;;;;6.07;2.40;;;14.90;93.30;;;;;;5056545;28;20143;-77
2024/03/30 03:45:30;;;;;;;4.40;2.58;;;14.90;93.10;;;;;;5064977;28;20036;-77
2024/03/30 03:47:56;;;;;;;3.78;2.60;;;14.90;93.10;;;;;;5051769;28;20528;-77
2024/03/30 03:50:22;;;;;;;4.93;2.90;;;14.80;93.20;;;;;;5060668;28;20558;-77
2024/03/30 03:52:47;;;;;;;4.57;2.53;;;14.80;93.20;;;;;;5053860;28;20120;-77
2024/03/30 03:55:13;;;;;;;5.75;2.83;;;14.80;93.20;;;;;;5061604;28;20048;-77
2024/03/30 03:57:39;;;;;;;5.30;2.50;;;14.80;93.30;;;;;;5049480;28;20024;-77
2024/03/30 04:00:05;;;;;;;4.30;2.80;;;14.80;93.30;;;;;;5050774;28;20094;-77
2024/03/30 04:02:37;;;;;;;6.53;2.63;;;14.80;93.30;;;;;;5058512;28;20054;-76
2024/03/30 04:05:03;;;;;;;3.47;2.38;;;14.80;93.30;;;;;;5051758;28;20036;-77
2024/03/30 04:07:29;;;;;;;3.63;2.60;;;14.80;93.30;;;;;;5048857;28;20036;-78
2024/03/30 04:09:54;;;;;;;7.57;2.97;;;14.80;93.30;;;;;;5052832;28;20037;-78
2024/03/30 04:12:20;;;;;;;4.88;2.45;;;14.80;93.30;;;;;;5062405;28;20025;-78
2024/03/30 04:14:46;;;;;;;3.95;2.53;;;14.80;93.30;;;;;;5055395;28;20037;-78
2024/03/30 04:17:12;;;;;;;6.20;2.80;;;14.80;93.30;;;;;;5066821;28;20051;-77
2024/03/30 04:19:37;;;;;;;4.20;2.92;;;14.80;93.30;;;;;;5060044;28;20033;-77
2024/03/30 04:22:04;;;;;;;3.60;2.60;;;14.80;93.30;;;;;;5060119;28;20526;-77
2024/03/30 04:24:29;;;;;;;4.75;3.13;;;14.80;93.30;;;;;;5056861;28;20373;-77
2024/03/30 04:26:55;;;;;;;5.07;3.00;;;14.80;93.30;;;;;;5054469;28;20031;-77
2024/03/30 04:29:20;;;;;;;5.90;3.20;;;14.80;93.30;;;;;;5059864;28;20476;-75
2024/03/30 04:31:46;;;;;;;4.05;2.90;;;14.70;93.40;;;;;;5055088;28;20028;-75
2024/03/30 04:34:11;;;;;;;7.40;3.00;;;14.70;93.40;;;;;;5056759;28;20033;-75
2024/03/30 04:36:37;;;;;;;5.68;3.38;;;14.70;93.50;;;;;;5063585;28;20067;-75
2024/03/30 04:39:04;;;;;;;6.28;3.50;;;14.70;93.50;;;;;;5059328;28;20033;-75
2024/03/30 04:41:30;;;;;;;6.30;3.35;;;14.70;93.60;;;;;;5061797;28;20028;-75
2024/03/30 04:43:55;;;;;;;8.73;3.15;;;14.70;93.60;;;;;;5047852;28;20071;-75
2024/03/30 04:46:21;;;;;;;5.07;3.22;;;14.70;93.60;;;;;;5063248;28;20032;-75
2024/03/30 04:48:47;;;;;;;4.88;3.10;;;14.70;93.60;;;;;;5066433;28;20384;-75
2024/03/30 04:51:13;;;;;;;10.25;3.70;;;14.70;93.60;;;;;;5063640;28;20032;-75
2024/03/30 04:53:39;;;;;;;7.95;3.65;;;14.70;93.60;;;;;;5053221;28;20132;-75
2024/03/30 04:56:10;;;;;;;8.75;4.18;;;14.70;93.70;;;;;;5057619;28;20028;-75
2024/03/30 04:58:37;;;;;;;7.82;3.70;;;14.70;93.70;;;;;;5056484;28;20053;-75
2024/03/30 05:01:05;;;;;;;6.97;4.00;;;14.70;93.70;;;;;;5055528;28;20484;-75
2024/03/30 05:03:31;;;;;;;9.95;3.83;;;14.70;93.80;;;;;;5056973;28;20028;-75
2024/03/30 05:05:57;;;;;;;9.20;4.63;;;14.60;93.80;;;;;;5053175;28;20043;-75
2024/03/30 05:08:23;;;;;;;9.60;4.25;;;14.60;93.80;;;;;;5058896;28;20032;-75
2024/03/30 05:10:52;;;;;;;6.85;4.28;;;14.60;93.90;;;;;;5057122;28;20879;-75
2024/03/30 05:13:21;;;;;;;7.70;4.47;;;14.70;93.90;;;;;;5052185;28;20664;-75
2024/03/30 05:15:47;;;;;;;7.50;4.50;;;14.70;93.90;;;;;;5061865;28;20039;-75
2024/03/30 05:18:13;;;;;;;6.75;4.15;;;14.60;93.90;;;;;;5047039;28;20032;-75
2024/03/30 05:20:50;;;;;;;6.57;4.35;;;14.60;94.00;;;;;;5067275;28;20038;-75
2024/03/30 05:23:22;;;;;;;7.07;4.65;;;14.60;94.00;;;;;;5047106;28;20033;-75
2024/03/30 05:25:49;;;;;;;8.33;4.67;;;14.60;94.10;;;;;;5054600;28;20032;-75
2024/03/30 05:28:17;;;;;;;11.70;4.82;;;14.60;94.10;;;;;;5055114;28;20032;-75
2024/03/30 05:30:43;;;;;;;7.65;4.65;;;14.60;94.10;;;;;;5047893;28;20062;-75
2024/03/30 05:33:10;;;;;;;7.60;5.00;;;14.60;94.10;;;;;;5046355;28;20072;-75
2024/03/30 05:35:36;;;;;;;6.25;4.45;;;14.60;94.20;;;;;;5051254;28;20039;-75
2024/03/30 05:38:03;;;;;;;7.22;4.85;;;14.60;94.20;;;;;;5067928;28;20028;-75
2024/03/30 05:40:32;;;;;;;9.27;4.88;;;14.60;94.20;;;;;;5063809;28;20060;-75
2024/03/30 05:42:59;;;;;;;5.70;4.65;;;14.60;94.40;;;;;;5047797;28;20033;-75
2024/03/30 05:45:24;;;;;;;8.27;5.28;;;14.60;94.20;;;;;;5056442;28;20082;-75
2024/03/30 05:47:50;;;;;;;8.88;4.72;;;14.60;94.30;;;;;;5049120;28;20041;-75
2024/03/30 05:50:16;;;;;;;13.57;6.38;;;14.60;94.30;;;;;;5070800;28;20035;-75
2024/03/30 05:52:41;;;;;;;8.88;5.53;;;14.60;94.30;;;;;;5054668;28;20047;-75
2024/03/30 05:55:07;;;;;;;9.70;5.22;;;14.60;94.30;;;;;;5059849;28;20170;-75
2024/03/30 05:57:32;;;;;;;8.15;5.55;;;14.60;94.30;;;;;;5068315;28;20028;-75
2024/03/30 05:59:58;;;;;;;7.65;5.32;;;14.60;94.40;;;;;;5063576;28;20030;-75
2024/03/30 06:02:24;;;;;;;7.82;5.35;;;14.60;94.40;;;;;;5066640;28;20112;-75
2024/03/30 06:04:51;;;;;;;9.13;5.75;;;14.50;94.40;;;;;;5060030;28;20343;-75
2024/03/30 06:07:16;;;;;;;9.30;5.70;;;14.60;94.40;;;;;;5061105;28;20052;-75
2024/03/30 06:09:43;;;;;;;9.65;5.45;;;14.50;94.40;;;;;;5068002;28;20040;-75
2024/03/30 06:12:09;;;;;;;8.95;5.45;;;14.60;94.40;;;;;;5055938;28;20046;-75
2024/03/30 06:14:34;;;;;;;9.05;5.90;;;14.50;94.40;;;;;;5062654;28;20036;-75
2024/03/30 06:17:00;;;;;;;8.18;5.60;;;14.50;94.40;;;;;;5055550;28;20029;-74
2024/03/30 06:19:26;;;;;;;8.32;5.13;;;14.50;94.50;;;;;;5061705;28;20033;-75
2024/03/30 06:21:54;;;;;;;8.73;6.00;;;14.60;94.50;;;;;;5061812;28;20036;-75
2024/03/30 06:24:20;;;;;;;10.70;6.35;;;14.50;94.50;;;;;;5057136;28;20537;-75
2024/03/30 06:26:45;;;;;;;8.80;5.72;;;14.60;94.60;;;;;;5049908;28;20041;-75
2024/03/30 06:29:11;;;;;;;7.95;5.43;;;14.50;94.60;;;;;;5059307;28;20037;-75
2024/03/30 06:31:37;;;;;;;9.32;5.70;;;14.50;94.60;;;;;;5051423;28;20052;-75
2024/03/30 06:34:06;;;;;;;14.52;6.15;;;14.50;94.70;;;;;;5061949;28;20411;-75
2024/03/30 06:36:34;;;;;;;7.95;5.30;;;14.50;94.70;;;;;;5060786;28;20028;-75
2024/03/30 06:39:00;;;;;;;9.38;5.45;;;14.40;94.70;;;;;;5057876;28;20051;-75
2024/03/30 06:44:10;;;;;;;8.93;5.50;;;14.40;94.80;;;;;;5056230;28;20099;-75
2024/03/30 06:46:36;;;;;;;9.40;5.88;;;14.40;94.80;;;;;;5049579;28;20575;-75
2024/03/30 06:49:02;;;;;;;9.13;6.15;;;14.40;94.90;;;;;;5060778;28;20112;-75
2024/03/30 06:51:29;;;;;;;11.35;6.45;;;14.40;94.90;;;;;;5055106;28;20033;-75
2024/03/30 06:53:54;;;;;;;8.57;5.75;;;14.40;94.90;;;;;;5058263;28;20110;-75
2024/03/30 06:56:20;;;;;;;8.55;5.80;;;14.40;94.90;;;;;;5054396;28;20024;-75
2024/03/30 06:58:46;;;;;;;9.90;6.28;;;14.40;94.90;;;;;;5052584;28;20052;-75
2024/03/30 07:01:13;;;;;;;8.85;6.15;;;14.40;95.00;;;;;;5051757;28;20076;-75
2024/03/30 07:03:39;;;;;;;8.80;6.05;;;14.40;95.00;;;;;;5054190;28;20040;-75
2024/03/30 07:06:05;;;;;;;10.45;6.25;;;14.40;95.00;;;;;;5056210;28;20020;-75
2024/03/30 07:08:31;;;;;;;10.25;6.95;;;14.40;95.00;;;;;;5053550;28;20032;-75
2024/03/30 07:10:57;;;;;;;10.15;6.50;;;14.40;95.10;;;;;;5056480;28;20024;-76
2024/03/30 07:13:22;;;;;;;9.98;6.60;;;14.40;95.10;;;;;;5053030;28;20040;-76
2024/03/30 07:15:48;;;;;;;9.40;6.20;;;14.50;95.00;;;;;;5056014;28;20373;-75
2024/03/30 07:18:14;;;;;;;9.30;6.43;;;14.50;95.00;;;;;;5051913;28;20028;-77
2024/03/30 07:20:40;;;;;;;9.95;6.65;;;14.40;95.00;;;;;;5051124;28;20056;-76
2024/03/30 07:23:06;;;;;;;9.85;6.65;;;14.50;95.00;;;;;;5056843;28;20366;-76
2024/03/30 07:25:35;;;;;;;10.35;6.45;;;14.50;95.00;;;;;;5057295;28;20544;-76
2024/03/30 07:28:01;;;;;;;10.77;6.40;;;14.50;95.10;;;;;;5048886;28;20025;-76
2024/03/30 07:30:26;;;;;;;10.55;5.82;;;14.40;95.10;;;;;;5058474;28;20032;-76
2024/03/30 07:32:52;;;;;;;11.40;6.35;;;14.40;95.10;;;;;;5051473;28;20073;-76
2024/03/30 07:35:18;;;;;;;10.45;6.38;;;14.40;95.20;;;;;;5056335;28;20033;-76
2024/03/30 07:37:43;;;;;;;13.45;5.85;;;14.40;95.10;;;;;;5055015;28;20460;-76
2024/03/30 07:40:09;;;;;;;10.55;6.35;;;14.50;95.10;;;;;;5054579;28;20468;-77
2024/03/30 07:42:35;;;;;;;8.18;5.78;;;14.40;95.20;;;;;;5057245;28;20044;-76
2024/03/30 07:45:01;;;;;;;9.18;6.15;;;14.40;95.20;;;;;;5053881;28;20443;-75
2024/03/30 07:47:26;;;;;;;8.93;5.82;;;14.40;95.30;;;;;;5059707;28;20108;-75
2024/03/30 07:49:52;;;;;;;8.60;5.70;;;14.50;95.30;;;;;;5053326;28;20274;-76
2024/03/30 07:52:17;;;;;;;12.25;6.97;;;14.40;95.30;;;;;;5059474;28;20052;-75
2024/03/30 07:54:43;;;;;;;11.30;6.65;;;14.40;95.30;;;;;;5054888;28;20087;-75
2024/03/30 07:57:09;;;;;;;14.65;7.03;;;14.40;95.30;;;;;;5051503;28;20044;-77
2024/03/30 07:59:34;;;;;;;9.68;6.05;;;14.40;95.40;;;;;;5056008;28;20070;-76
2024/03/30 08:02:00;;;;;;;11.88;6.75;;;14.40;95.40;;;;;;5054676;28;21136;-76
2024/03/30 08:04:25;;;;;;;12.07;6.60;;;14.50;95.40;;;;;;5052313;28;20029;-77
2024/03/30 08:06:52;;;;;;;11.07;7.15;;;14.40;95.40;;;;;;5050825;28;20479;-76
2024/03/30 08:09:21;;;;;;;10.73;6.70;;;14.40;95.50;;;;;;5059601;28;20037;-76
2024/03/30 08:11:48;;;;;;;14.32;8.52;;;14.40;95.50;;;;;;5053490;28;20033;-76
2024/03/30 08:14:16;;;;;;;13.73;8.30;;;14.40;95.60;;;;;;5051712;28;20049;-76
2024/03/30 08:16:44;;;;;;;11.95;8.15;;;14.40;95.70;;;;;;5056382;28;20399;-75
2024/03/30 08:19:10;;;;;;;12.25;7.93;;;14.30;95.80;;;;;;5052511;28;20115;-75
2024/03/30 08:21:37;;;;;;;11.60;7.60;;;14.30;95.90;;;;;;5055440;28;20036;-76
2024/03/30 08:24:03;;;;;;;17.10;8.30;;;14.30;96.00;;;;;;5056791;28;20476;-75
2024/03/30 08:26:28;;;;;;;9.18;5.22;;;14.30;96.10;;;;;;5058534;28;20066;-75
2024/03/30 08:28:54;;;;;;;9.75;5.32;;;14.40;96.00;;;;;;5056497;28;20036;-75
2024/03/30 08:31:20;;;;;;;8.68;5.28;;;14.40;96.00;;;;;;5051095;28;20369;-76
2024/03/30 08:33:47;;;;;;;8.07;5.22;;;14.40;96.20;;;;;;5052946;28;20040;-74
2024/03/30 08:36:12;;;;;;;7.72;5.45;;;14.40;96.00;;;;;;5051536;28;20027;-75
2024/03/30 08:38:39;;;;;;;6.38;4.40;;;14.50;96.10;;;;;;5055646;28;20033;-75
2024/03/30 08:41:04;;;;;;;7.63;4.75;;;14.40;96.10;;;;;;5054613;28;20033;-76
2024/03/30 08:43:30;;;;;;;6.63;4.00;;;14.50;96.20;;;;;;5060853;28;20035;-76
2024/03/30 08:45:57;;;;;;;7.93;5.28;;;14.50;96.20;;;;;;5054614;28;20067;-76
2024/03/30 08:48:23;;;;;;;9.32;5.72;;;14.50;96.10;;;;;;5056146;28;20029;-76
2024/03/30 08:50:49;;;;;;;13.45;5.53;;;14.60;96.20;;;;;;5056871;28;20039;-76
2024/03/30 08:53:15;;;;;;;12.18;6.60;;;14.60;96.20;;;;;;5053936;28;20029;-76
2024/03/30 08:55:41;;;;;;;10.20;6.15;;;14.60;96.20;;;;;;5054131;28;20678;-76
2024/03/30 08:58:07;;;;;;;8.63;6.15;;;14.60;96.20;;;;;;5056649;28;20056;-76
2024/03/30 09:00:34;;;;;;;10.05;6.38;;;14.60;96.40;;;;;;5062084;28;20103;-76
2024/03/30 09:03:00;;;;;;;10.02;5.97;;;14.50;96.50;;;;;;5051686;28;20025;-76
2024/03/30 09:05:29;;;;;;;9.57;5.10;;;14.50;96.50;;;;;;5048495;28;20675;-75
2024/03/30 09:07:56;;;;;;;10.27;5.68;;;14.50;96.60;;;;;;5049153;28;20075;-76
2024/03/30 09:10:25;;;;;;;10.73;6.82;;;14.50;96.60;;;;;;5054106;28;20029;-75
2024/03/30 09:12:51;;;;;;;10.73;5.45;;;14.50;96.70;;;;;;5054168;28;20095;-76
2024/03/30 09:15:19;;;;;;;9.18;5.40;;;14.60;96.80;;;;;;5052486;28;20056;-76
2024/03/30 09:17:45;;;;;;;7.47;4.93;;;14.50;96.80;;;;;;5050258;28;20113;-76
2024/03/30 09:20:11;;;;;;;7.35;5.00;;;14.50;96.80;;;;;;5052070;28;20044;-76
2024/03/30 09:22:38;;;;;;;9.10;5.18;;;14.60;97.00;;;;;;5053226;28;20033;-77
2024/03/30 09:25:12;;;;;;;8.05;5.22;;;14.60;96.90;;;;;;5056633;28;20112;-76
2024/03/30 09:27:38;;;;;;;6.28;4.10;;;14.60;97.10;;;;;;5057448;28;20515;-77
2024/03/30 09:30:04;;;;;;;7.07;5.05;;;14.60;97.10;;;;;;5054482;28;20033;-77
2024/03/30 09:32:32;;;;;;;8.80;4.55;;;14.60;97.20;;;;;;5053269;28;20528;-76
2024/03/30 09:34:58;;;;;;;8.70;5.60;;;14.70;97.20;;;;;;5057596;28;20408;-76
2024/03/30 09:37:23;;;;;;;10.18;5.78;;;14.70;97.30;;;;;;5052698;28;20035;-76
2024/03/30 09:39:49;;;;;;;8.27;5.47;;;14.70;97.40;;;;;;5055692;28;20025;-76
2024/03/30 09:42:27;;;;;;;7.80;5.63;;;14.70;97.30;;;;;;5055744;28;20032;-76
2024/03/30 09:44:54;;;;;;;10.57;5.45;;;14.60;97.30;;;;;;5054788;28;20032;-75
2024/03/30 09:47:22;;;;;;;7.78;4.65;;;14.70;97.40;;;;;;5064561;28;20032;-76
2024/03/30 09:49:49;;;;;;;8.52;5.15;;;14.80;97.40;;;;;;5059931;28;20028;-76
2024/03/30 09:52:16;;;;;;;11.55;4.57;;;14.80;97.50;;;;;;5055040;28;20044;-76
2024/03/30 09:54:43;;;;;;;5.18;3.65;;;14.80;97.50;;;;;;5055412;28;20041;-76
2024/03/30 09:57:09;;;;;;;6.43;4.50;;;14.90;97.50;;;;;;5051830;28;20498;-76
2024/03/30 09:59:34;;;;;;;6.75;3.58;;;14.80;97.60;;;;;;5057185;28;20052;-76
2024/03/30 10:02:00;;;;;;;4.18;3.00;;;14.80;97.70;;;;;;5053829;28;20033;-76
2024/03/30 10:04:26;;;;;;;3.92;2.63;;;14.80;97.80;;;;;;5058182;28;20033;-76
2024/03/30 10:06:57;;;;;;;4.30;3.13;;;14.80;97.80;;;;;;5059804;28;20562;-76
2024/03/30 10:09:26;;;;;;;6.07;3.22;;;14.80;97.90;;;;;;5062208;28;20033;-78
2024/03/30 10:12:02;;;;;;;6.78;3.88;;;14.90;97.90;;;;;;5058137;28;20847;-78
2024/03/30 10:14:47;;;;;;;5.82;3.35;;;14.90;97.90;;;;;;5057110;28;20048;-77
2024/03/30 10:17:12;;;;;;;5.57;3.50;;;14.90;97.80;;;;;;5058175;28;20070;-77
2024/03/30 10:19:40;;;;;;;5.47;3.42;;;15.00;97.80;;;;;;5054491;28;20487;-78
2024/03/30 10:22:06;;;;;;;5.35;3.30;;;15.10;97.90;;;;;;5051866;28;20380;-78
2024/03/30 10:24:32;;;;;;;5.22;3.83;;;15.10;97.90;;;;;;5058240;28;20055;-79
2024/03/30 10:26:58;;;;;;;7.00;4.07;;;15.10;97.90;;;;;;5055041;28;20551;-75
2024/03/30 10:29:24;;;;;;;6.13;3.75;;;15.10;98.00;;;;;;5057901;28;20041;-78
2024/03/30 10:31:50;;;;;;;7.68;4.20;;;15.10;97.90;;;;;;5054147;28;20035;-80
2024/03/30 10:34:16;;;;;;;11.77;4.65;;;15.20;97.90;;;;;;5051591;28;20032;-77
2024/03/30 10:36:42;;;;;;;7.70;4.30;;;15.20;98.00;;;;;;5056598;28;20480;-78
2024/03/30 10:39:08;;;;;;;7.35;4.28;;;15.30;97.90;;;;;;5056513;28;20083;-78
2024/03/30 10:41:33;;;;;;;9.23;4.60;;;15.30;97.90;;;;;;5046354;28;20029;-79
2024/03/30 10:43:59;;;;;;;6.82;4.10;;;15.40;97.80;;;;;;5057500;28;20162;-77
2024/03/30 10:46:26;;;;;;;8.30;3.80;;;15.50;97.80;;;;;;5055614;28;20036;-77
2024/03/30 10:48:52;;;;;;;6.32;3.70;;;15.60;97.70;;;;;;5057488;28;20071;-79
2024/03/30 10:51:23;;;;;;;9.27;4.20;;;15.60;97.70;;;;;;5056603;28;20025;-72
2024/03/30 10:53:49;;;;;;;5.57;4.03;;;15.60;97.80;;;;;;5052939;28;20098;-80
2024/03/30 10:56:14;;;;;;;6.45;3.38;;;15.70;97.80;;;;;;5056944;28;20043;-74
2024/03/30 10:58:40;;;;;;;6.00;3.65;;;15.60;97.90;;;;;;5057837;28;20056;-85
2024/03/30 11:01:08;;;;;;;4.97;3.35;;;15.60;98.00;;;;;;5056578;28;20481;-84
2024/03/30 11:03:34;;;;;;;8.82;3.92;;;15.60;98.20;;;;;;5053057;28;20028;-83
2024/03/30 11:06:01;;;;;;;8.57;4.22;;;15.70;98.00;;;;;;5055392;28;20065;-80
2024/03/30 11:08:27;;;;;;;12.23;3.63;;;15.70;98.00;;;;;;5051247;28;20432;-79
2024/03/30 11:10:54;;;;;;;8.07;3.75;;;15.80;97.90;;;;;;5053183;28;20582;-78
2024/03/30 11:13:21;;;;;;;9.50;3.72;;;15.90;97.80;;;;;;5049845;28;20029;-79
2024/03/30 11:15:48;;;;;;;11.45;3.90;;;16.00;97.70;;;;;;5061112;28;20035;-79
2024/03/30 11:18:35;;;;;;;8.55;3.58;;;16.10;97.50;;;;;;5055802;28;20040;-81
2024/03/30 11:21:08;;;;;;;8.00;3.75;;;16.20;97.30;;;;;;5063444;28;20028;-79
2024/03/30 11:23:40;;;;;;;8.55;3.42;;;16.30;97.20;;;;;;5059984;28;20036;-78
2024/03/30 11:26:10;;;;;;;13.75;4.00;;;16.30;97.10;;;;;;5063644;28;20033;-80
2024/03/30 11:28:50;;;;;;;13.57;3.42;;;16.30;97.20;;;;;;5055708;28;20059;-80
2024/03/30 11:31:39;;;;;;;7.40;3.35;;;16.30;97.20;;;;;;5061625;28;20399;-82
2024/03/30 11:34:35;;;;;;;9.65;3.58;;;16.40;97.20;;;;;;5062011;28;20036;-81
2024/03/30 11:37:24;;;;;;;8.93;3.55;;;16.50;97.10;;;;;;5053245;28;20033;-80
2024/03/30 11:40:18;;;;;;;14.82;3.72;;;16.50;97.00;;;;;;5055714;28;20383;-81
2024/03/30 11:43:09;;;;;;;;;;;16.60;97.00;;;;;;5056203;28;20357;-80
2024/03/30 11:45:38;;;;;;;8.88;2.83;;;16.60;97.10;;;;;;5055203;28;19956;-80
2024/03/30 11:48:05;;;;;;;16.95;4.38;;;16.60;96.80;;;;;;5053271;28;20453;-80
2024/03/30 11:50:32;;;;;;;11.98;3.55;;;16.70;96.90;;;;;;5054547;28;20100;-80
2024/03/30 11:52:58;;;;;;;14.27;3.75;;;16.80;96.70;;;;;;5051840;28;20113;-81
2024/03/30 11:55:30;;;;;;;19.20;3.42;;;16.90;96.70;;;;;;5056510;28;20044;-81
2024/03/30 11:57:58;;;;;;;25.17;3.45;;;17.00;96.40;;;;;;5061976;28;20492;-81
2024/03/30 12:00:28;;;;;;;13.68;2.90;;;17.00;96.60;;;;;;5056786;28;20484;-80
2024/03/30 12:03:03;;;;;;;16.60;3.08;;;17.10;96.40;;;;;;5058264;28;20426;-80
2024/03/30 12:05:29;;;;;;;20.17;3.08;;;17.10;96.30;;;;;;5053347;28;20037;-81
2024/03/30 12:07:58;;;;;;;15.82;4.05;;;17.20;96.10;;;;;;5055972;28;20037;-81
2024/03/30 12:10:26;;;;;;;18.27;3.83;;;17.30;96.00;;;;;;5058697;28;20032;-80
2024/03/30 12:12:58;;;;;;;15.02;3.80;;;17.40;95.90;;;;;;5053763;28;20095;-81
2024/03/30 12:15:26;;;;;;;17.13;2.60;;;17.40;95.80;;;;;;5054235;28;20484;-87
2024/03/30 12:17:52;;;;;;;33.47;4.32;;;17.40;95.80;;;;;;5051912;28;20508;-81
2024/03/30 12:20:19;;;;;;;18.88;4.10;;;17.50;95.80;;;;;;5058688;28;20051;-80
2024/03/30 12:22:44;;;;;;;21.02;3.42;;;17.50;96.00;;;;;;5057159;28;20035;-77
2024/03/30 12:25:11;;;;;;;21.63;3.47;;;17.50;95.70;;;;;;5052938;28;20036;-82
2024/03/30 12:27:38;;;;;;;25.85;4.03;;;17.60;95.80;;;;;;5050930;28;20109;-83
2024/03/30 12:30:04;;;;;;;26.92;4.95;;;17.60;95.80;;;;;;5054289;28;20037;-86
2024/03/30 12:32:30;;;;;;;19.45;3.25;;;17.60;95.60;;;;;;5051629;28;20448;-78
2024/03/30 12:34:58;;;;;;;8.88;2.33;;;17.70;95.60;;;;;;5055287;28;20036;-76
2024/03/30 12:37:24;;;;;;;29.73;2.95;;;17.70;95.60;;;;;;5057451;28;20086;-81
2024/03/30 12:39:51;;;;;;;29.23;3.40;;;17.70;95.60;;;;;;5060131;28;20130;-81
2024/03/30 12:42:19;;;;;;;20.48;3.08;;;17.70;95.40;;;;;;5056501;28;20021;-80
2024/03/30 12:44:45;;;;;;;24.95;3.97;;;17.80;95.40;;;;;;5050924;28;20068;-80
2024/03/30 12:47:12;;;;;;;22.73;3.63;;;17.90;95.20;;;;;;5053709;28;20064;-80